sensor_id;sensor_type;location;lat;lon;timestamp;pressure;altitude;pressure_sealevel;temperature;humidity
37206;BME280;23099;42.636;23.198;2023-03-18T00:00:11;92308.22;;;-0.61;92.69
37206;BME280;23099;42.636;23.198;2023-03-18T00:02:39;92304.31;;;-0.63;92.66
37206;BME280;23099;42.636;23.198;2023-03-18T00:05:07;92302.19;;;-0.61;92.63
37206;BME280;23099;42.636;23.198;2023-03-18T00:07:36;92296.44;;;-0.63;92.56
37206;BME280;23099;42.636;23.198;2023-03-18T00:10:03;92293.09;;;-0.69;92.94
37206;BME280;23099;42.636;23.198;2023-03-18T00:12:30;92293.66;;;-0.72;92.74
37206;BME280;23099;42.636;23.198;2023-03-18T00:14:57;92289.38;;;-0.63;92.62
37206;BME280;23099;42.636;23.198;2023-03-18T00:17:25;92291.81;;;-0.53;92.38
37206;BME280;23099;42.636;23.198;2023-03-18T00:19:51;92285.16;;;-0.45;91.77
37206;BME280;23099;42.636;23.198;2023-03-18T00:22:19;92285.56;;;-0.38;90.92
37206;BME280;23099;42.636;23.198;2023-03-18T00:24:47;92279.31;;;-0.42;91.08
37206;BME280;23099;42.636;23.198;2023-03-18T00:27:14;92281.38;;;-0.39;91.39
37206;BME280;23099;42.636;23.198;2023-03-18T00:29:41;92274.28;;;-0.39;90.48
37206;BME280;23099;42.636;23.198;2023-03-18T00:32:08;92271.03;;;-0.49;89.94
37206;BME280;23099;42.636;23.198;2023-03-18T00:34:35;92267.22;;;-0.57;90.35
37206;BME280;23099;42.636;23.198;2023-03-18T00:37:02;92265.25;;;-0.65;91.05
37206;BME280;23099;42.636;23.198;2023-03-18T00:39:29;92263.41;;;-0.64;91.18
37206;BME280;23099;42.636;23.198;2023-03-18T00:41:59;92258.94;;;-0.64;91.45
37206;BME280;23099;42.636;23.198;2023-03-18T00:44:34;92251.69;;;-0.72;91.50
37206;BME280;23099;42.636;23.198;2023-03-18T00:47:01;92257.44;;;-0.70;91.00
37206;BME280;23099;42.636;23.198;2023-03-18T00:49:28;92249.72;;;-0.80;91.16
37206;BME280;23099;42.636;23.198;2023-03-18T00:51:55;92255.31;;;-0.87;91.64
37206;BME280;23099;42.636;23.198;2023-03-18T00:54:22;92247.00;;;-0.94;91.74
37206;BME280;23099;42.636;23.198;2023-03-18T00:56:49;92243.34;;;-0.93;91.61
37206;BME280;23099;42.636;23.198;2023-03-18T00:59:17;92242.84;;;-0.95;92.24
37206;BME280;23099;42.636;23.198;2023-03-18T01:01:43;92237.59;;;-0.95;92.24
37206;BME280;23099;42.636;23.198;2023-03-18T01:04:10;92233.63;;;-0.92;92.89
37206;BME280;23099;42.636;23.198;2023-03-18T01:06:38;92235.34;;;-1.01;92.78
37206;BME280;23099;42.636;23.198;2023-03-18T01:09:06;92237.16;;;-1.02;92.67
37206;BME280;23099;42.636;23.198;2023-03-18T01:11:33;92225.47;;;-1.10;92.84
37206;BME280;23099;42.636;23.198;2023-03-18T01:14:00;92227.66;;;-1.17;92.92
37206;BME280;23099;42.636;23.198;2023-03-18T01:16:28;92226.66;;;-1.21;93.18
37206;BME280;23099;42.636;23.198;2023-03-18T01:18:55;92224.78;;;-1.39;93.26
37206;BME280;23099;42.636;23.198;2023-03-18T01:21:21;92231.03;;;-1.35;93.92
37206;BME280;23099;42.636;23.198;2023-03-18T01:23:48;92226.34;;;-1.38;94.39
37206;BME280;23099;42.636;23.198;2023-03-18T01:26:15;92223.69;;;-1.33;94.18
37206;BME280;23099;42.636;23.198;2023-03-18T01:28:42;92228.81;;;-1.47;93.76
37206;BME280;23099;42.636;23.198;2023-03-18T01:31:09;92233.91;;;-1.55;93.93
37206;BME280;23099;42.636;23.198;2023-03-18T01:33:38;92215.44;;;-1.69;94.91
37206;BME280;23099;42.636;23.198;2023-03-18T01:36:06;92225.59;;;-1.62;94.95
37206;BME280;23099;42.636;23.198;2023-03-18T01:38:33;92226.81;;;-1.55;95.24
37206;BME280;23099;42.636;23.198;2023-03-18T01:41:00;92216.97;;;-1.44;95.85
37206;BME280;23099;42.636;23.198;2023-03-18T01:43:30;92216.09;;;-1.34;95.34
37206;BME280;23099;42.636;23.198;2023-03-18T01:46:00;92219.72;;;-1.30;94.63
37206;BME280;23099;42.636;23.198;2023-03-18T01:48:29;92209.84;;;-1.38;94.10
37206;BME280;23099;42.636;23.198;2023-03-18T01:50:59;92227.84;;;-1.32;94.33
37206;BME280;23099;42.636;23.198;2023-03-18T01:53:37;92218.63;;;-1.29;94.46
37206;BME280;23099;42.636;23.198;2023-03-18T01:56:05;92221.41;;;-1.21;94.81
37206;BME280;23099;42.636;23.198;2023-03-18T01:58:34;92218.44;;;-1.14;94.17
37206;BME280;23099;42.636;23.198;2023-03-18T02:01:06;92218.75;;;-1.16;93.20
37206;BME280;23099;42.636;23.198;2023-03-18T02:03:34;92211.84;;;-1.30;91.88
37206;BME280;23099;42.636;23.198;2023-03-18T02:06:03;92216.16;;;-1.39;92.63
37206;BME280;23099;42.636;23.198;2023-03-18T02:08:30;92209.63;;;-1.42;93.27
37206;BME280;23099;42.636;23.198;2023-03-18T02:10:57;92209.19;;;-1.49;93.05
37206;BME280;23099;42.636;23.198;2023-03-18T02:13:23;92208.19;;;-1.53;92.85
37206;BME280;23099;42.636;23.198;2023-03-18T02:15:54;92201.66;;;-1.74;93.09
37206;BME280;23099;42.636;23.198;2023-03-18T02:18:26;92210.59;;;-1.81;93.39
37206;BME280;23099;42.636;23.198;2023-03-18T02:21:09;92202.31;;;-1.88;94.86
37206;BME280;23099;42.636;23.198;2023-03-18T02:23:44;92194.75;;;-1.89;95.04
37206;BME280;23099;42.636;23.198;2023-03-18T02:26:23;92198.13;;;-1.89;95.25
37206;BME280;23099;42.636;23.198;2023-03-18T02:28:57;92196.00;;;-1.87;94.92
37206;BME280;23099;42.636;23.198;2023-03-18T02:31:27;92196.97;;;-1.77;94.90
37206;BME280;23099;42.636;23.198;2023-03-18T02:33:55;92197.38;;;-1.70;94.83
37206;BME280;23099;42.636;23.198;2023-03-18T02:36:24;92184.13;;;-1.79;94.77
37206;BME280;23099;42.636;23.198;2023-03-18T02:38:53;92196.06;;;-1.68;94.32
37206;BME280;23099;42.636;23.198;2023-03-18T02:41:23;92197.38;;;-1.70;93.98
37206;BME280;23099;42.636;23.198;2023-03-18T02:43:50;92196.59;;;-1.71;93.63
37206;BME280;23099;42.636;23.198;2023-03-18T02:46:26;92196.69;;;-1.76;94.80
37206;BME280;23099;42.636;23.198;2023-03-18T02:48:55;92190.59;;;-1.71;94.83
37206;BME280;23099;42.636;23.198;2023-03-18T02:51:23;92193.38;;;-1.63;95.20
37206;BME280;23099;42.636;23.198;2023-03-18T02:53:51;92195.78;;;-1.66;94.84
37206;BME280;23099;42.636;23.198;2023-03-18T02:56:20;92184.50;;;-1.67;94.47
37206;BME280;23099;42.636;23.198;2023-03-18T02:58:47;92189.53;;;-1.70;93.81
37206;BME280;23099;42.636;23.198;2023-03-18T03:01:14;92191.44;;;-1.76;93.24
37206;BME280;23099;42.636;23.198;2023-03-18T03:03:43;92189.03;;;-1.72;94.21
37206;BME280;23099;42.636;23.198;2023-03-18T03:06:09;92189.31;;;-1.74;93.98
37206;BME280;23099;42.636;23.198;2023-03-18T03:08:36;92190.94;;;-1.78;93.33
37206;BME280;23099;42.636;23.198;2023-03-18T03:11:04;92185.94;;;-1.74;93.03
37206;BME280;23099;42.636;23.198;2023-03-18T03:13:30;92184.13;;;-1.79;92.75
37206;BME280;23099;42.636;23.198;2023-03-18T03:15:57;92186.53;;;-1.83;92.89
37206;BME280;23099;42.636;23.198;2023-03-18T03:18:24;92198.91;;;-1.88;93.02
37206;BME280;23099;42.636;23.198;2023-03-18T03:20:54;92189.50;;;-1.89;93.15
37206;BME280;23099;42.636;23.198;2023-03-18T03:23:20;92192.59;;;-1.87;93.64
37206;BME280;23099;42.636;23.198;2023-03-18T03:25:47;92191.78;;;-1.83;94.03
37206;BME280;23099;42.636;23.198;2023-03-18T03:28:15;92194.38;;;-1.83;94.20
37206;BME280;23099;42.636;23.198;2023-03-18T03:30:42;92201.97;;;-1.81;93.91
37206;BME280;23099;42.636;23.198;2023-03-18T03:33:10;92198.84;;;-1.83;93.08
37206;BME280;23099;42.636;23.198;2023-03-18T03:35:37;92195.94;;;-1.82;93.40
37206;BME280;23099;42.636;23.198;2023-03-18T03:38:06;92193.84;;;-1.80;93.62
37206;BME280;23099;42.636;23.198;2023-03-18T03:40:34;92191.53;;;-1.86;93.49
37206;BME280;23099;42.636;23.198;2023-03-18T03:43:00;92199.41;;;-1.86;93.48
37206;BME280;23099;42.636;23.198;2023-03-18T03:45:28;92184.84;;;-1.97;93.61
37206;BME280;23099;42.636;23.198;2023-03-18T03:47:55;92204.44;;;-1.90;93.21
37206;BME280;23099;42.636;23.198;2023-03-18T03:50:22;92205.69;;;-1.87;93.39
37206;BME280;23099;42.636;23.198;2023-03-18T03:52:48;92204.59;;;-1.81;93.06
37206;BME280;23099;42.636;23.198;2023-03-18T03:55:18;92201.66;;;-1.74;93.26
37206;BME280;23099;42.636;23.198;2023-03-18T03:57:46;92200.28;;;-1.72;93.58
37206;BME280;23099;42.636;23.198;2023-03-18T04:00:15;92200.50;;;-1.68;93.15
37206;BME280;23099;42.636;23.198;2023-03-18T04:02:43;92193.19;;;-1.71;92.80
37206;BME280;23099;42.636;23.198;2023-03-18T04:05:11;92200.22;;;-1.67;92.83
37206;BME280;23099;42.636;23.198;2023-03-18T04:07:39;92198.72;;;-1.73;92.69
37206;BME280;23099;42.636;23.198;2023-03-18T04:10:07;92195.41;;;-1.79;92.16
37206;BME280;23099;42.636;23.198;2023-03-18T04:12:37;92200.91;;;-1.80;92.09
37206;BME280;23099;42.636;23.198;2023-03-18T04:15:05;92204.25;;;-1.74;91.93
37206;BME280;23099;42.636;23.198;2023-03-18T04:17:32;92205.03;;;-1.74;91.71
37206;BME280;23099;42.636;23.198;2023-03-18T04:19:59;92211.06;;;-1.73;92.22
37206;BME280;23099;42.636;23.198;2023-03-18T04:22:26;92202.69;;;-1.75;92.66
37206;BME280;23099;42.636;23.198;2023-03-18T04:24:53;92212.31;;;-1.71;92.37
37206;BME280;23099;42.636;23.198;2023-03-18T04:27:20;92214.16;;;-1.71;92.32
37206;BME280;23099;42.636;23.198;2023-03-18T04:29:49;92212.84;;;-1.69;92.06
37206;BME280;23099;42.636;23.198;2023-03-18T04:32:16;92212.28;;;-1.66;92.22
37206;BME280;23099;42.636;23.198;2023-03-18T04:34:42;92221.16;;;-1.62;92.22
37206;BME280;23099;42.636;23.198;2023-03-18T04:37:10;92216.09;;;-1.58;92.54
37206;BME280;23099;42.636;23.198;2023-03-18T04:39:39;92209.66;;;-1.66;94.06
37206;BME280;23099;42.636;23.198;2023-03-18T04:42:06;92218.66;;;-1.53;94.75
37206;BME280;23099;42.636;23.198;2023-03-18T04:44:33;92216.84;;;-1.53;96.09
37206;BME280;23099;42.636;23.198;2023-03-18T04:47:01;92224.41;;;-1.51;96.43
37206;BME280;23099;42.636;23.198;2023-03-18T04:49:28;92222.84;;;-1.52;97.07
37206;BME280;23099;42.636;23.198;2023-03-18T04:51:54;92229.66;;;-1.51;96.75
37206;BME280;23099;42.636;23.198;2023-03-18T04:54:21;92225.94;;;-1.45;96.68
37206;BME280;23099;42.636;23.198;2023-03-18T04:56:48;92223.00;;;-1.44;96.81
37206;BME280;23099;42.636;23.198;2023-03-18T04:59:15;92222.66;;;-1.37;97.11
37206;BME280;23099;42.636;23.198;2023-03-18T05:01:42;92226.06;;;-1.36;97.11
37206;BME280;23099;42.636;23.198;2023-03-18T05:04:10;92211.72;;;-1.44;97.91
37206;BME280;23099;42.636;23.198;2023-03-18T05:06:37;92222.91;;;-1.33;97.63
37206;BME280;23099;42.636;23.198;2023-03-18T05:09:04;92221.34;;;-1.34;97.66
37206;BME280;23099;42.636;23.198;2023-03-18T05:11:31;92219.22;;;-1.32;97.84
37206;BME280;23099;42.636;23.198;2023-03-18T05:13:58;92226.03;;;-1.31;98.11
37206;BME280;23099;42.636;23.198;2023-03-18T05:16:24;92219.91;;;-1.27;97.90
37206;BME280;23099;42.636;23.198;2023-03-18T05:18:51;92221.13;;;-1.19;97.85
37206;BME280;23099;42.636;23.198;2023-03-18T05:21:19;92226.16;;;-1.23;97.99
37206;BME280;23099;42.636;23.198;2023-03-18T05:23:46;92231.47;;;-1.28;99.02
37206;BME280;23099;42.636;23.198;2023-03-18T05:26:12;92236.94;;;-1.24;99.28
37206;BME280;23099;42.636;23.198;2023-03-18T05:28:39;92229.50;;;-1.17;99.53
37206;BME280;23099;42.636;23.198;2023-03-18T05:31:06;92232.03;;;-1.31;100.00
37206;BME280;23099;42.636;23.198;2023-03-18T05:33:32;92229.03;;;-1.43;100.00
37206;BME280;23099;42.636;23.198;2023-03-18T05:36:00;92227.19;;;-1.43;100.00
37206;BME280;23099;42.636;23.198;2023-03-18T05:38:28;92231.56;;;-1.57;100.00
37206;BME280;23099;42.636;23.198;2023-03-18T05:40:55;92225.38;;;-1.66;100.00
37206;BME280;23099;42.636;23.198;2023-03-18T05:43:22;92218.28;;;-1.65;100.00
37206;BME280;23099;42.636;23.198;2023-03-18T05:45:49;92225.47;;;-1.52;100.00
37206;BME280;23099;42.636;23.198;2023-03-18T05:48:15;92233.78;;;-1.45;100.00
37206;BME280;23099;42.636;23.198;2023-03-18T05:50:42;92240.47;;;-1.34;100.00
37206;BME280;23099;42.636;23.198;2023-03-18T05:53:12;92237.47;;;-1.27;100.00
37206;BME280;23099;42.636;23.198;2023-03-18T05:55:49;92233.97;;;-1.18;100.00
37206;BME280;23099;42.636;23.198;2023-03-18T05:58:16;92233.31;;;-1.10;100.00
37206;BME280;23099;42.636;23.198;2023-03-18T06:00:43;92238.44;;;-0.99;99.71
37206;BME280;23099;42.636;23.198;2023-03-18T06:03:10;92241.72;;;-0.89;99.18
37206;BME280;23099;42.636;23.198;2023-03-18T06:05:37;92244.19;;;-0.79;98.84
37206;BME280;23099;42.636;23.198;2023-03-18T06:08:03;92255.31;;;-0.68;98.33
37206;BME280;23099;42.636;23.198;2023-03-18T06:10:30;92246.59;;;-0.63;98.08
37206;BME280;23099;42.636;23.198;2023-03-18T06:12:59;92243.91;;;-0.58;97.92
37206;BME280;23099;42.636;23.198;2023-03-18T06:15:25;92256.13;;;-0.54;97.20
37206;BME280;23099;42.636;23.198;2023-03-18T06:17:52;92244.66;;;-0.58;97.66
37206;BME280;23099;42.636;23.198;2023-03-18T06:20:20;92249.22;;;-0.63;98.29
37206;BME280;23099;42.636;23.198;2023-03-18T06:22:47;92252.91;;;-0.83;99.68
37206;BME280;23099;42.636;23.198;2023-03-18T06:25:16;92257.72;;;-0.72;100.00
37206;BME280;23099;42.636;23.198;2023-03-18T06:27:43;92256.59;;;-0.65;100.00
37206;BME280;23099;42.636;23.198;2023-03-18T06:30:13;92255.81;;;-0.66;99.72
37206;BME280;23099;42.636;23.198;2023-03-18T06:32:40;92260.56;;;-0.68;100.00
37206;BME280;23099;42.636;23.198;2023-03-18T06:35:08;92243.06;;;-0.73;100.00
37206;BME280;23099;42.636;23.198;2023-03-18T06:37:36;92244.81;;;-0.68;100.00
37206;BME280;23099;42.636;23.198;2023-03-18T06:40:04;92249.34;;;-0.55;100.00
37206;BME280;23099;42.636;23.198;2023-03-18T06:42:31;92238.25;;;-0.52;100.00
37206;BME280;23099;42.636;23.198;2023-03-18T06:44:58;92237.03;;;-0.41;100.00
37206;BME280;23099;42.636;23.198;2023-03-18T06:47:27;92222.16;;;-0.45;99.99
37206;BME280;23099;42.636;23.198;2023-03-18T06:49:54;92221.28;;;-0.41;99.97
37206;BME280;23099;42.636;23.198;2023-03-18T06:52:22;92229.81;;;-0.16;99.90
37206;BME280;23099;42.636;23.198;2023-03-18T06:54:49;92226.63;;;0.00;99.51
37206;BME280;23099;42.636;23.198;2023-03-18T06:57:16;92235.91;;;0.25;97.71
37206;BME280;23099;42.636;23.198;2023-03-18T06:59:42;92221.72;;;0.26;96.61
37206;BME280;23099;42.636;23.198;2023-03-18T07:02:10;92236.31;;;0.46;95.13
37206;BME280;23099;42.636;23.198;2023-03-18T07:04:38;92235.16;;;0.66;94.08
37206;BME280;23099;42.636;23.198;2023-03-18T07:07:05;92238.75;;;0.84;93.17
37206;BME280;23099;42.636;23.198;2023-03-18T07:09:32;92238.31;;;0.90;92.35
37206;BME280;23099;42.636;23.198;2023-03-18T07:11:59;92242.78;;;1.03;92.57
37206;BME280;23099;42.636;23.198;2023-03-18T07:14:27;92237.31;;;1.14;92.30
37206;BME280;23099;42.636;23.198;2023-03-18T07:16:55;92233.09;;;1.26;90.51
37206;BME280;23099;42.636;23.198;2023-03-18T07:19:21;92244.94;;;1.37;89.73
37206;BME280;23099;42.636;23.198;2023-03-18T07:21:49;92237.19;;;1.55;90.93
37206;BME280;23099;42.636;23.198;2023-03-18T07:24:16;92230.50;;;1.71;91.13
37206;BME280;23099;42.636;23.198;2023-03-18T07:26:45;92236.47;;;1.85;89.85
37206;BME280;23099;42.636;23.198;2023-03-18T07:29:14;92230.84;;;2.00;88.33
37206;BME280;23099;42.636;23.198;2023-03-18T07:31:41;92229.06;;;2.18;89.10
37206;BME280;23099;42.636;23.198;2023-03-18T07:34:08;92226.50;;;2.35;89.20
37206;BME280;23099;42.636;23.198;2023-03-18T07:36:35;92232.34;;;2.63;88.44
37206;BME280;23099;42.636;23.198;2023-03-18T07:39:04;92233.84;;;2.87;87.31
37206;BME280;23099;42.636;23.198;2023-03-18T07:41:31;92230.59;;;3.07;86.19
37206;BME280;23099;42.636;23.198;2023-03-18T07:43:58;92236.22;;;3.14;84.65
37206;BME280;23099;42.636;23.198;2023-03-18T07:46:25;92230.16;;;3.13;84.45
37206;BME280;23099;42.636;23.198;2023-03-18T07:48:52;92229.22;;;3.09;83.66
37206;BME280;23099;42.636;23.198;2023-03-18T07:51:18;92233.25;;;2.98;84.39
37206;BME280;23099;42.636;23.198;2023-03-18T07:53:46;92229.53;;;3.08;85.73
37206;BME280;23099;42.636;23.198;2023-03-18T07:56:16;92234.38;;;3.40;85.87
37206;BME280;23099;42.636;23.198;2023-03-18T07:58:43;92246.19;;;3.34;83.58
37206;BME280;23099;42.636;23.198;2023-03-18T08:01:09;92252.06;;;3.14;83.58
37206;BME280;23099;42.636;23.198;2023-03-18T08:03:36;92245.84;;;3.10;83.42
37206;BME280;23099;42.636;23.198;2023-03-18T08:06:03;92243.97;;;3.10;84.91
37206;BME280;23099;42.636;23.198;2023-03-18T08:08:30;92241.81;;;3.21;85.47
37206;BME280;23099;42.636;23.198;2023-03-18T08:10:58;92234.69;;;3.47;85.89
37206;BME280;23099;42.636;23.198;2023-03-18T08:13:28;92240.59;;;3.87;84.93
37206;BME280;23099;42.636;23.198;2023-03-18T08:15:54;92243.03;;;4.18;83.95
37206;BME280;23099;42.636;23.198;2023-03-18T08:18:21;92245.97;;;4.25;82.19
37206;BME280;23099;42.636;23.198;2023-03-18T08:20:48;92240.94;;;4.50;82.48
37206;BME280;23099;42.636;23.198;2023-03-18T08:23:15;92241.28;;;4.78;80.25
37206;BME280;23099;42.636;23.198;2023-03-18T08:25:45;92239.50;;;4.99;79.26
37206;BME280;23099;42.636;23.198;2023-03-18T08:28:12;92243.69;;;5.00;78.06
37206;BME280;23099;42.636;23.198;2023-03-18T08:30:40;92250.34;;;5.36;78.71
37206;BME280;23099;42.636;23.198;2023-03-18T08:33:07;92241.63;;;5.56;75.15
37206;BME280;23099;42.636;23.198;2023-03-18T08:35:35;92237.94;;;5.69;75.65
37206;BME280;23099;42.636;23.198;2023-03-18T08:38:01;92242.34;;;5.65;75.88
37206;BME280;23099;42.636;23.198;2023-03-18T08:40:28;92235.22;;;5.78;73.93
37206;BME280;23099;42.636;23.198;2023-03-18T08:42:55;92233.78;;;5.89;72.45
37206;BME280;23099;42.636;23.198;2023-03-18T08:45:22;92240.69;;;6.02;73.58
37206;BME280;23099;42.636;23.198;2023-03-18T08:47:50;92241.47;;;6.02;73.70
37206;BME280;23099;42.636;23.198;2023-03-18T08:50:16;92245.00;;;6.07;71.92
37206;BME280;23099;42.636;23.198;2023-03-18T08:52:43;92242.28;;;6.15;72.29
37206;BME280;23099;42.636;23.198;2023-03-18T08:55:10;92244.53;;;6.37;72.17
37206;BME280;23099;42.636;23.198;2023-03-18T08:57:37;92251.22;;;6.56;73.74
37206;BME280;23099;42.636;23.198;2023-03-18T09:00:04;92250.25;;;6.60;72.69
37206;BME280;23099;42.636;23.198;2023-03-18T09:02:31;92251.09;;;6.40;72.37
37206;BME280;23099;42.636;23.198;2023-03-18T09:04:59;92260.50;;;6.50;73.60
37206;BME280;23099;42.636;23.198;2023-03-18T09:07:26;92264.97;;;6.58;72.01
37206;BME280;23099;42.636;23.198;2023-03-18T09:09:53;92255.47;;;6.69;71.54
37206;BME280;23099;42.636;23.198;2023-03-18T09:12:20;92265.44;;;6.72;72.17
37206;BME280;23099;42.636;23.198;2023-03-18T09:14:46;92262.13;;;6.75;70.81
37206;BME280;23099;42.636;23.198;2023-03-18T09:17:13;92267.75;;;6.73;71.13
37206;BME280;23099;42.636;23.198;2023-03-18T09:19:40;92262.13;;;6.87;69.25
37206;BME280;23099;42.636;23.198;2023-03-18T09:22:08;92272.13;;;6.90;70.02
37206;BME280;23099;42.636;23.198;2023-03-18T09:24:35;92266.03;;;7.02;67.40
37206;BME280;23099;42.636;23.198;2023-03-18T09:27:02;92274.00;;;7.26;68.37
37206;BME280;23099;42.636;23.198;2023-03-18T09:29:28;92271.91;;;7.44;66.62
37206;BME280;23099;42.636;23.198;2023-03-18T09:31:55;92268.66;;;7.51;65.99
37206;BME280;23099;42.636;23.198;2023-03-18T09:34:22;92270.63;;;7.66;63.12
37206;BME280;23099;42.636;23.198;2023-03-18T09:36:49;92269.56;;;7.55;64.53
37206;BME280;23099;42.636;23.198;2023-03-18T09:39:18;92268.56;;;7.47;61.76
37206;BME280;23099;42.636;23.198;2023-03-18T09:41:54;92268.78;;;7.54;63.61
37206;BME280;23099;42.636;23.198;2023-03-18T09:44:29;92272.53;;;7.77;59.07
37206;BME280;23099;42.636;23.198;2023-03-18T09:47:12;92263.41;;;7.91;57.09
37206;BME280;23099;42.636;23.198;2023-03-18T09:50:04;92258.94;;;7.95;54.57
37206;BME280;23099;42.636;23.198;2023-03-18T09:52:38;92274.75;;;8.15;53.89
37206;BME280;23099;42.636;23.198;2023-03-18T09:55:17;92265.41;;;8.34;55.57
37206;BME280;23099;42.636;23.198;2023-03-18T09:57:49;92271.00;;;8.44;57.01
37206;BME280;23099;42.636;23.198;2023-03-18T10:00:20;92268.34;;;8.44;50.31
37206;BME280;23099;42.636;23.198;2023-03-18T10:02:51;92260.78;;;8.46;52.27
37206;BME280;23099;42.636;23.198;2023-03-18T10:05:23;92271.31;;;8.71;51.97
37206;BME280;23099;42.636;23.198;2023-03-18T10:07:53;92264.34;;;8.82;50.25
37206;BME280;23099;42.636;23.198;2023-03-18T10:10:27;92262.16;;;9.00;50.28
37206;BME280;23099;42.636;23.198;2023-03-18T10:13:01;92267.03;;;8.98;51.48
37206;BME280;23099;42.636;23.198;2023-03-18T10:15:35;92260.44;;;9.23;48.70
37206;BME280;23099;42.636;23.198;2023-03-18T10:18:10;92265.91;;;9.62;48.39
37206;BME280;23099;42.636;23.198;2023-03-18T10:20:50;92265.69;;;9.70;48.60
37206;BME280;23099;42.636;23.198;2023-03-18T10:23:26;92266.56;;;9.74;49.07
37206;BME280;23099;42.636;23.198;2023-03-18T10:26:03;92256.91;;;9.70;49.45
37206;BME280;23099;42.636;23.198;2023-03-18T10:28:39;92243.88;;;9.84;47.51
37206;BME280;23099;42.636;23.198;2023-03-18T10:31:16;92262.50;;;9.80;47.67
37206;BME280;23099;42.636;23.198;2023-03-18T10:33:49;92262.59;;;10.03;46.58
37206;BME280;23099;42.636;23.198;2023-03-18T10:36:23;92260.72;;;9.53;47.97
37206;BME280;23099;42.636;23.198;2023-03-18T10:38:53;92257.69;;;9.35;47.99
37206;BME280;23099;42.636;23.198;2023-03-18T10:41:27;92254.91;;;9.47;47.90
37206;BME280;23099;42.636;23.198;2023-03-18T10:43:55;92255.56;;;10.14;47.55
37206;BME280;23099;42.636;23.198;2023-03-18T10:46:24;92247.09;;;10.28;46.49
37206;BME280;23099;42.636;23.198;2023-03-18T10:48:54;92252.72;;;10.42;45.92
37206;BME280;23099;42.636;23.198;2023-03-18T10:51:28;92244.44;;;10.89;44.19
37206;BME280;23099;42.636;23.198;2023-03-18T10:54:02;92243.91;;;10.80;45.04
37206;BME280;23099;42.636;23.198;2023-03-18T10:56:33;92250.13;;;10.88;43.54
37206;BME280;23099;42.636;23.198;2023-03-18T10:59:04;92235.34;;;10.94;41.28
37206;BME280;23099;42.636;23.198;2023-03-18T11:01:31;92236.94;;;11.21;39.00
37206;BME280;23099;42.636;23.198;2023-03-18T11:04:00;92228.84;;;11.67;40.85
37206;BME280;23099;42.636;23.198;2023-03-18T11:06:54;92213.72;;;11.52;41.06
37206;BME280;23099;42.636;23.198;2023-03-18T11:10:13;92230.81;;;11.96;40.82
37206;BME280;23099;42.636;23.198;2023-03-18T11:13:03;92225.19;;;12.05;36.60
37206;BME280;23099;42.636;23.198;2023-03-18T11:15:36;92216.53;;;11.62;38.27
37206;BME280;23099;42.636;23.198;2023-03-18T11:18:04;92223.00;;;11.09;39.38
37206;BME280;23099;42.636;23.198;2023-03-18T11:20:34;92235.13;;;10.41;39.68
37206;BME280;23099;42.636;23.198;2023-03-18T11:23:14;92224.38;;;9.80;39.91
37206;BME280;23099;42.636;23.198;2023-03-18T11:25:44;92238.97;;;9.51;40.31
37206;BME280;23099;42.636;23.198;2023-03-18T11:28:21;92227.91;;;9.02;43.52
37206;BME280;23099;42.636;23.198;2023-03-18T11:30:52;92243.78;;;8.51;45.41
37206;BME280;23099;42.636;23.198;2023-03-18T11:33:23;92239.97;;;8.24;45.35
37206;BME280;23099;42.636;23.198;2023-03-18T11:35:52;92245.56;;;7.91;47.39
37206;BME280;23099;42.636;23.198;2023-03-18T11:38:21;92246.50;;;7.59;47.87
37206;BME280;23099;42.636;23.198;2023-03-18T11:40:51;92232.88;;;7.36;47.30
37206;BME280;23099;42.636;23.198;2023-03-18T11:43:21;92239.13;;;7.16;48.00
37206;BME280;23099;42.636;23.198;2023-03-18T11:45:53;92245.75;;;7.09;48.00
37206;BME280;23099;42.636;23.198;2023-03-18T11:48:29;92237.03;;;7.21;47.27
37206;BME280;23099;42.636;23.198;2023-03-18T11:51:25;92239.78;;;7.49;48.32
37206;BME280;23099;42.636;23.198;2023-03-18T11:54:10;92231.72;;;8.41;49.62
37206;BME280;23099;42.636;23.198;2023-03-18T11:56:43;92226.56;;;9.08;45.35
37206;BME280;23099;42.636;23.198;2023-03-18T11:59:32;92229.03;;;9.67;42.95
37206;BME280;23099;42.636;23.198;2023-03-18T12:02:27;92223.81;;;9.55;41.60
37206;BME280;23099;42.636;23.198;2023-03-18T12:05:11;92215.28;;;9.65;40.63
37206;BME280;23099;42.636;23.198;2023-03-18T12:07:51;92226.22;;;10.34;42.27
37206;BME280;23099;42.636;23.198;2023-03-18T12:10:24;92215.88;;;10.13;41.63
37206;BME280;23099;42.636;23.198;2023-03-18T12:13:03;92218.91;;;10.31;39.34
37206;BME280;23099;42.636;23.198;2023-03-18T12:15:36;92227.50;;;9.85;40.06
37206;BME280;23099;42.636;23.198;2023-03-18T12:18:15;92234.25;;;9.44;38.93
37206;BME280;23099;42.636;23.198;2023-03-18T12:20:48;92226.28;;;9.13;40.30
37206;BME280;23099;42.636;23.198;2023-03-18T12:23:35;92238.34;;;8.91;41.77
37206;BME280;23099;42.636;23.198;2023-03-18T12:26:06;92233.78;;;8.92;40.76
37206;BME280;23099;42.636;23.198;2023-03-18T12:29:06;92232.16;;;9.53;41.62
37206;BME280;23099;42.636;23.198;2023-03-18T12:31:48;92227.00;;;9.61;40.65
37206;BME280;23099;42.636;23.198;2023-03-18T12:34:29;92236.22;;;9.82;40.31
37206;BME280;23099;42.636;23.198;2023-03-18T12:37:08;92230.53;;;9.65;39.97
37206;BME280;23099;42.636;23.198;2023-03-18T12:42:59;92231.28;;;9.14;39.42
37206;BME280;23099;42.636;23.198;2023-03-18T12:45:34;92236.34;;;8.88;40.25
37206;BME280;23099;42.636;23.198;2023-03-18T12:48:08;92233.06;;;9.26;40.46
37206;BME280;23099;42.636;23.198;2023-03-18T12:50:41;92235.13;;;9.68;40.49
37206;BME280;23099;42.636;23.198;2023-03-18T12:53:12;92222.16;;;10.20;40.47
37206;BME280;23099;42.636;23.198;2023-03-18T12:55:43;92224.19;;;10.46;39.68
37206;BME280;23099;42.636;23.198;2023-03-18T12:58:14;92227.78;;;10.35;40.30
37206;BME280;23099;42.636;23.198;2023-03-18T13:00:45;92216.13;;;10.66;38.58
37206;BME280;23099;42.636;23.198;2023-03-18T13:03:22;92230.66;;;10.26;39.76
37206;BME280;23099;42.636;23.198;2023-03-18T13:05:53;92238.88;;;9.82;39.03
37206;BME280;23099;42.636;23.198;2023-03-18T13:08:40;92238.78;;;9.60;40.77